Abie, Nebraska
Current Conditions -  °F | °C
As of 3:15 AM on Monday 22 Dec 2014 (Local Time) from KAHQ Reporting Station
Light Rain Light Rain  
Wind Chill: 37°   Ceiling: 400
Heat Index: 43°   Visibility: 5mi
Dew Point: 41°   Wind: 12mph
Humidity: 91%   Direction: 170°S
Pressure: 29.56"   Gusts: NA
Location:  41.33°N, 96.95°W
Report Text: KAHQ 220915Z AUTO 17010KT 5SM -RA OVC004 06/05 A2956 RMK AO2 P0001 T00610048
Loading
Personal Weather Stations






























Interactive Weather Map New forecast layout! Learn more

10-Day Weather Forecast

Advertisements
Track Severe Weather on mobile